首页
METAR-TAF:

METAR-TAF

机场 :

成吉思汗國際機場

乌兰巴托, 蒙古国

纬度: 47-55N, 经度: 106-52E, 海拔: 1306米

当前天气观测

该预报发布于33分钟前的10:30 UTC
风速12节,风向南转南东
温度 2°C
湿度 51%
气压 1017 hPa
能见度10公里或以上
散云层高于3300英尺
散云层高于10000英尺

METAR: ZMUB 241030Z 15006MPS 9999 SCT033 SCT100 02/M07 Q1017 NOSIG RMK QFE655.3 49 MOP

时间: 20:03 (11:03 UTC)

预报

该预报发布于6小时和23分钟前的04:40 UTC
预报有效从24日的 06点(UTC)到 25日的 12点(UTC)
风速16节,风向南转南东
能见度10公里或以上
少量云层高于3000英尺, 积雨云.
散云层高于3300英尺
散云层高于10000英尺
短暂存在
从 24日的 06点(UTC)到 24日的 12点(UTC)
风速16节,风向多变,有时为25节阵风
能見度: 6000
散云层高于2700英尺, 积雨云.
多云层高于3000英尺
小阵雨
成为
从 24日的 13点(UTC)到 24日的 15点(UTC)
风速17节,风向南转南东
成为
从 24日的 20点(UTC)到 24日的 22点(UTC)
风速14节,风向南转南东
能見度: 6000
散云层高于3000英尺
多云层高于8000英尺
雪, 雨
成为
从 25日的 02点(UTC)到 25日的 04点(UTC)
风速4节,风向多变

TAF: ZMUB 240440Z 2406/2512 16008MPS 9999 FEW030CB SCT033 SCT100 TX05/2407Z TNM02/2423Z TEMPO 2406/2412 VRB08G13MPS 6000 -SHRA SCT027CB BKN030 BECMG 2413/2415 15009MPS BECMG 2420/2422 15007MPS 6000 SNRA SCT030 BKN080 BECMG 2502/2504 VRB02MPS

超过4000个机场的气象观测和天气预报(METAR&TAF报告)。

可查询的气象台以黄色和红色小点在地图上表示。

将鼠标移到小点上方,可查看气象台名称。

然后点击查看天气观测和预报。

如需切换地图:点击带黑十字的绿色按钮放大地图;点击带横线的绿色按钮缩小地图;或者点击绿色箭头查看邻近地区的地图。


METAR-TAF: